createdAt,value
2022-11-24T00:01:27.971Z,5.84
2022-11-24T00:04:42.833Z,5.85
2022-11-24T00:07:51.939Z,5.84
2022-11-24T00:11:12.658Z,5.86
2022-11-24T00:14:27.829Z,5.83
2022-11-24T00:17:42.841Z,5.84
2022-11-24T00:20:54.505Z,5.86
2022-11-24T00:24:02.825Z,5.88
2022-11-24T00:27:17.826Z,5.85
2022-11-24T00:30:40.873Z,5.88
2022-11-24T00:33:51.979Z,5.90
2022-11-24T00:37:06.818Z,5.90
2022-11-24T00:40:21.842Z,5.91
2022-11-24T00:43:29.818Z,5.91
2022-11-24T00:46:38.903Z,5.90
2022-11-24T00:49:47.841Z,5.92
2022-11-24T00:53:02.835Z,5.94
2022-11-24T00:56:12.353Z,5.92
2022-11-24T00:59:26.816Z,5.93
2022-11-24T01:02:34.880Z,5.95
2022-11-24T01:05:49.832Z,5.94
2022-11-24T01:09:04.813Z,5.95
2022-11-24T01:12:20.846Z,5.91
2022-11-24T01:15:22.947Z,5.97
2022-11-24T01:18:37.829Z,5.94
2022-11-24T01:21:40.218Z,5.90
2022-11-24T01:24:54.859Z,5.93
2022-11-24T01:28:16.800Z,5.93
2022-11-24T01:31:33.842Z,5.95
2022-11-24T01:34:48.824Z,5.95
2022-11-24T01:37:50.757Z,5.94
2022-11-24T01:41:12.833Z,5.96
2022-11-24T01:44:26.993Z,5.98
2022-11-24T01:47:45.804Z,5.98
2022-11-24T01:50:53.394Z,5.96
2022-11-24T01:54:13.812Z,5.91
2022-11-24T01:57:36.817Z,5.89
2022-11-24T02:00:40.803Z,5.93
2022-11-24T02:03:59.848Z,5.93
2022-11-24T02:07:05.584Z,5.89
2022-11-24T02:10:22.830Z,5.90
2022-11-24T02:13:25.194Z,5.92
2022-11-24T02:16:43.834Z,5.87
2022-11-24T02:20:07.913Z,5.91
2022-11-24T02:23:24.425Z,5.92
2022-11-24T02:26:50.828Z,5.91
2022-11-24T02:30:06.508Z,5.91
2022-11-24T02:33:17.804Z,5.91
2022-11-24T02:36:26.436Z,5.91
2022-11-24T02:39:34.838Z,5.91
2022-11-24T02:42:52.858Z,5.93
2022-11-24T02:45:54.865Z,5.88
2022-11-24T02:49:09.823Z,5.88
2022-11-24T02:52:25.807Z,5.85
2022-11-24T02:55:33.849Z,5.84
2022-11-24T02:58:42.424Z,5.81
2022-11-24T03:01:56.898Z,5.80
2022-11-24T03:05:05.818Z,5.80
2022-11-24T03:08:14.409Z,5.77
2022-11-24T03:11:22.833Z,5.72
2022-11-24T03:14:31.732Z,5.73
2022-11-24T03:17:40.819Z,5.66
2022-11-24T03:20:55.825Z,5.67
2022-11-24T03:24:04.764Z,5.72
2022-11-24T03:27:12.821Z,5.64
2022-11-24T03:30:28.379Z,5.62
2022-11-24T03:33:36.827Z,5.48
2022-11-24T03:36:45.408Z,5.51
2022-11-24T03:39:53.831Z,5.42
2022-11-24T03:43:02.382Z,5.46
2022-11-24T03:46:10.873Z,5.41
2022-11-24T03:49:19.358Z,5.41
2022-11-24T03:52:27.795Z,5.37
2022-11-24T03:55:42.819Z,5.31
2022-11-24T03:58:51.476Z,5.35
2022-11-24T04:02:06.850Z,5.39
2022-11-24T04:05:15.474Z,5.38
2022-11-24T04:08:23.809Z,5.32
2022-11-24T04:11:32.420Z,5.36
2022-11-24T04:14:46.829Z,5.38
2022-11-24T04:17:50.040Z,5.38
2022-11-24T04:21:04.820Z,5.39
2022-11-24T04:24:13.435Z,5.38
2022-11-24T04:27:27.832Z,5.37
2022-11-24T04:30:42.866Z,5.34
2022-11-24T04:33:57.804Z,5.27
2022-11-24T04:37:05.803Z,5.27
2022-11-24T04:40:21.820Z,5.25
2022-11-24T04:44:16.968Z,5.87
2022-11-24T04:47:32.986Z,5.87
2022-11-24T04:50:42.985Z,5.23
2022-11-24T04:53:51.546Z,5.20
2022-11-24T04:56:59.959Z,5.21
2022-11-24T05:00:15.974Z,5.14
2022-11-24T05:03:30.976Z,5.12
2022-11-24T05:06:46.984Z,5.10
2022-11-24T05:09:59.641Z,5.01
2022-11-24T05:13:13.467Z,5.07
2022-11-24T05:16:22.010Z,5.06
2022-11-24T05:19:32.508Z,5.03
2022-11-24T05:22:47.932Z,4.95
2022-11-24T05:25:50.117Z,4.98
2022-11-24T05:29:04.987Z,4.90
2022-11-24T05:32:13.527Z,4.94
2022-11-24T05:35:21.946Z,5.04
2022-11-24T05:38:37.954Z,4.95
2022-11-24T05:41:41.721Z,5.03
2022-11-24T05:45:03.951Z,5.11
2022-11-24T05:48:08.040Z,5.11
2022-11-24T05:51:25.926Z,5.15
2022-11-24T05:54:34.839Z,5.20
2022-11-24T05:57:43.950Z,5.19
2022-11-24T06:00:52.581Z,5.21
2022-11-24T06:04:06.932Z,5.23
2022-11-24T06:07:11.271Z,5.26
2022-11-24T06:10:27.950Z,5.26
2022-11-24T06:13:29.911Z,5.29
2022-11-24T06:16:44.976Z,5.28
2022-11-24T06:19:53.927Z,5.28
2022-11-24T06:23:02.489Z,5.25
2022-11-24T06:26:10.902Z,5.25
2022-11-24T06:29:19.544Z,5.26
2022-11-24T06:32:27.903Z,5.20
2022-11-24T06:35:36.549Z,5.23
2022-11-24T06:38:50.939Z,5.23
2022-11-24T06:42:05.939Z,5.23
2022-11-24T06:45:14.271Z,5.24
2022-11-24T06:48:29.947Z,5.26
2022-11-24T06:51:37.931Z,5.28
2022-11-24T06:54:46.469Z,5.33
2022-11-24T06:58:00.916Z,5.37
2022-11-24T07:01:09.970Z,5.38
2022-11-24T07:04:25.923Z,5.41
2022-11-24T07:07:34.045Z,5.47
2022-11-24T07:10:42.507Z,5.49
2022-11-24T07:14:00.096Z,5.57
2022-11-24T07:17:03.425Z,5.77
2022-11-24T07:20:17.965Z,5.74
2022-11-24T07:23:19.835Z,5.76
2022-11-24T07:26:34.947Z,5.78
2022-11-24T07:29:36.985Z,5.74
2022-11-24T07:32:51.990Z,5.78
2022-11-24T07:36:01.161Z,5.79
2022-11-24T07:39:11.943Z,5.80
2022-11-24T07:42:33.924Z,5.87
2022-11-24T07:45:42.742Z,5.94
2022-11-24T07:48:57.930Z,5.97
2022-11-24T07:52:07.934Z,5.89
2022-11-24T07:55:16.963Z,5.95
2022-11-24T07:58:32.381Z,6.01
2022-11-24T08:01:48.010Z,6.01
2022-11-24T08:04:56.569Z,5.99
2022-11-24T08:08:10.964Z,6.00
2022-11-24T08:11:15.061Z,6.03
2022-11-24T08:14:29.988Z,6.11
2022-11-24T08:17:31.980Z,6.14
2022-11-24T08:20:47.508Z,6.18
2022-11-24T08:24:03.953Z,6.20
2022-11-24T08:27:19.913Z,6.18
2022-11-24T08:30:24.609Z,6.26
2022-11-24T08:33:40.073Z,6.37
2022-11-24T08:36:48.752Z,6.28
2022-11-24T08:39:56.955Z,6.26
2022-11-24T08:43:12.180Z,6.25
2022-11-24T08:46:22.958Z,6.17
2022-11-24T08:49:31.520Z,6.17
2022-11-24T08:52:40.947Z,6.14
2022-11-24T08:55:51.312Z,6.20
2022-11-24T08:59:07.032Z,6.15
2022-11-24T09:02:15.517Z,6.16
2022-11-24T09:05:50.652Z,6.15
2022-11-24T09:08:54.683Z,6.15
2022-11-24T09:12:02.924Z,6.16
2022-11-24T09:15:18.923Z,6.23
2022-11-24T09:18:30.403Z,6.21
2022-11-24T09:21:39.546Z,6.22
2022-11-24T09:24:53.962Z,6.35
2022-11-24T09:28:02.964Z,6.38
2022-11-24T09:31:13.945Z,6.42
2022-11-24T09:34:22.928Z,6.41
2022-11-24T09:37:33.094Z,6.38
2022-11-24T09:41:06.026Z,6.50
2022-11-24T09:44:38.956Z,6.58
2022-11-24T09:47:57.862Z,6.71
2022-11-24T09:51:17.912Z,6.78
2022-11-24T09:54:35.914Z,6.92
2022-11-24T09:57:50.917Z,6.85
2022-11-24T10:01:05.988Z,6.88
2022-11-24T10:04:34.987Z,6.86
2022-11-24T10:08:16.957Z,6.98
2022-11-24T10:11:50.935Z,6.92
2022-11-24T10:15:21.099Z,6.99
2022-11-24T10:19:08.565Z,6.98
2022-11-24T10:22:45.056Z,6.98
2022-11-24T10:26:08.314Z,6.86
2022-11-24T10:29:30.451Z,6.85
2022-11-24T10:32:46.724Z,6.82
2022-11-24T10:36:04.922Z,6.80
2022-11-24T10:39:37.226Z,6.80
2022-11-24T10:42:52.944Z,6.91
2022-11-24T10:46:37.927Z,6.95
2022-11-24T10:49:56.661Z,6.95
2022-11-24T10:53:31.917Z,7.12
2022-11-24T10:56:44.387Z,7.23
2022-11-24T10:59:58.910Z,7.25
2022-11-24T11:03:25.928Z,7.34
2022-11-24T11:06:27.834Z,7.30
2022-11-24T11:09:42.954Z,7.39
2022-11-24T11:12:51.460Z,7.37
2022-11-24T11:16:00.987Z,7.46
2022-11-24T11:19:48.865Z,7.45
2022-11-24T11:23:08.139Z,7.40
2022-11-24T11:26:32.283Z,7.44
2022-11-24T11:36:43.512Z,7.53
2022-11-24T11:39:57.970Z,7.58
2022-11-24T11:43:25.937Z,7.55
2022-11-24T11:46:43.587Z,7.64
2022-11-24T11:49:54.928Z,7.71
2022-11-24T11:53:20.726Z,7.79
2022-11-24T11:56:52.922Z,7.76
2022-11-24T12:00:07.951Z,7.71
2022-11-24T12:03:38.122Z,7.85
2022-11-24T12:07:14.564Z,7.89
2022-11-24T12:10:57.956Z,7.94
2022-11-24T12:14:13.088Z,7.99
2022-11-24T12:17:46.917Z,8.08
2022-11-24T12:21:29.906Z,8.32
2022-11-24T12:24:57.101Z,8.47
2022-11-24T12:28:14.943Z,8.64
2022-11-24T12:32:06.924Z,8.72
2022-11-24T12:35:36.902Z,8.48
2022-11-24T12:38:49.453Z,8.27
2022-11-24T12:42:19.924Z,8.25
2022-11-24T12:45:55.955Z,8.25
2022-11-24T12:49:07.505Z,8.20
2022-11-24T12:52:24.914Z,8.03
2022-11-24T12:55:39.924Z,8.06
2022-11-24T12:59:00.286Z,8.04
2022-11-24T13:02:46.025Z,8.00
2022-11-24T13:06:07.545Z,7.89
2022-11-24T13:09:21.895Z,7.74
2022-11-24T13:12:30.553Z,7.60
2022-11-24T13:16:34.764Z,7.47
2022-11-24T13:19:34.645Z,7.49
2022-11-24T13:22:45.919Z,7.55
2022-11-24T13:26:22.952Z,7.67
2022-11-24T13:29:27.725Z,7.53
2022-11-24T13:32:42.920Z,7.67
2022-11-24T13:36:03.451Z,7.68
2022-11-24T13:39:27.020Z,7.70
2022-11-24T13:42:44.028Z,7.66
2022-11-24T13:46:05.953Z,7.64
2022-11-24T13:49:14.590Z,7.67
2022-11-24T13:52:47.932Z,7.66
2022-11-24T13:56:05.884Z,7.62
2022-11-24T13:59:30.917Z,7.65
2022-11-24T14:02:43.779Z,7.67
2022-11-24T14:06:01.921Z,7.69
2022-11-24T14:09:32.919Z,7.68
2022-11-24T14:12:43.341Z,7.69
2022-11-24T14:16:08.144Z,7.75
2022-11-24T14:19:19.523Z,7.76
2022-11-24T14:22:38.954Z,7.72
2022-11-24T14:25:49.845Z,7.65
2022-11-24T14:29:13.916Z,7.62
2022-11-24T14:32:31.295Z,7.69
2022-11-24T14:35:45.106Z,7.58
2022-11-24T14:38:59.922Z,7.57
2022-11-24T14:42:14.881Z,7.58
2022-11-24T14:45:36.931Z,7.58
2022-11-24T14:48:46.097Z,7.56
2022-11-24T14:52:08.942Z,7.49
2022-11-24T14:55:50.911Z,7.54
2022-11-24T14:58:53.810Z,7.55
2022-11-24T15:02:11.182Z,7.45
2022-11-24T15:05:20.895Z,7.38
2022-11-24T15:08:51.918Z,7.28
2022-11-24T15:12:09.897Z,7.33
2022-11-24T15:15:26.915Z,7.28
2022-11-24T15:18:43.189Z,7.19
2022-11-24T15:21:51.983Z,7.24
2022-11-24T15:25:00.817Z,7.23
2022-11-24T15:28:08.904Z,7.15
2022-11-24T15:31:17.589Z,7.10
2022-11-24T15:34:25.899Z,7.13
2022-11-24T15:37:34.762Z,7.13
2022-11-24T15:40:51.928Z,7.04
2022-11-24T15:44:14.990Z,7.05
2022-11-24T15:47:23.489Z,7.02
2022-11-24T15:50:38.900Z,6.96
2022-11-24T15:53:57.180Z,7.05
2022-11-24T15:57:08.890Z,7.00
2022-11-24T16:00:26.914Z,6.88
2022-11-24T16:03:47.056Z,6.82
2022-11-24T16:07:03.010Z,6.82
2022-11-24T16:10:34.138Z,6.81
2022-11-24T16:13:53.640Z,6.79
2022-11-24T16:17:09.891Z,6.74
2022-11-24T16:20:26.923Z,6.67
2022-11-24T16:23:35.136Z,6.72
2022-11-24T16:26:43.462Z,6.71
2022-11-24T16:29:57.899Z,6.69
2022-11-24T16:33:03.956Z,6.66
2022-11-24T16:36:20.942Z,6.56
2022-11-24T16:39:23.008Z,6.51
2022-11-24T16:42:39.241Z,6.49
2022-11-24T16:46:23.293Z,6.45
2022-11-24T16:49:25.573Z,6.41
2022-11-24T16:52:41.304Z,6.41
2022-11-24T16:55:57.321Z,6.40
2022-11-24T16:59:12.299Z,6.36
2022-11-24T17:02:21.913Z,6.41
2022-11-24T17:05:30.906Z,6.37
2022-11-24T17:08:46.895Z,6.28
2022-11-24T17:11:55.544Z,6.22
2022-11-24T17:18:43.054Z,6.22
2022-11-24T17:21:51.962Z,6.12
2022-11-24T17:25:06.953Z,6.19
2022-11-24T17:28:09.430Z,6.12
2022-11-24T17:31:29.187Z,6.19
2022-11-24T17:34:31.619Z,6.19
2022-11-24T17:37:46.928Z,6.14
2022-11-24T17:40:49.677Z,6.13
2022-11-24T17:44:05.333Z,6.07
2022-11-24T17:47:14.491Z,6.06
2022-11-24T17:50:33.721Z,5.99
2022-11-24T17:53:44.287Z,5.96
2022-11-24T17:56:53.316Z,5.93
2022-11-24T18:00:01.926Z,5.94
2022-11-24T18:03:11.029Z,5.92
2022-11-24T18:06:27.058Z,5.92
2022-11-24T18:09:36.528Z,5.88
2022-11-24T18:12:51.146Z,5.92
2022-11-24T18:16:03.570Z,5.95
2022-11-24T18:19:17.720Z,5.93
2022-11-24T18:22:57.949Z,5.88
2022-11-24T18:26:10.615Z,5.85
2022-11-24T18:29:18.820Z,5.80
2022-11-24T18:32:36.690Z,5.68
2022-11-24T18:35:56.275Z,5.82
2022-11-24T18:39:13.911Z,5.83
2022-11-24T18:42:25.613Z,5.82
2022-11-24T18:45:41.292Z,5.84
2022-11-24T18:48:49.969Z,5.81
2022-11-24T18:52:05.288Z,5.86
2022-11-24T18:55:20.278Z,5.83
2022-11-24T18:58:28.899Z,5.85
2022-11-24T19:01:46.193Z,5.82
2022-11-24T19:05:01.904Z,5.80
2022-11-24T19:08:05.270Z,5.81
2022-11-24T19:11:41.282Z,5.75
2022-11-24T19:14:43.744Z,5.76
2022-11-24T19:18:01.310Z,5.74
2022-11-24T19:21:03.893Z,5.74
2022-11-24T19:24:20.313Z,5.69
2022-11-24T19:27:29.367Z,5.65
2022-11-24T19:30:37.993Z,5.62
2022-11-24T19:33:53.373Z,5.64
2022-11-24T19:36:55.910Z,5.58
2022-11-24T19:40:13.288Z,5.51
2022-11-24T19:43:24.875Z,5.53
2022-11-24T19:46:47.886Z,5.53
2022-11-24T19:49:50.865Z,5.52
2022-11-24T19:53:07.030Z,5.48
2022-11-24T19:56:18.919Z,5.46
2022-11-24T19:59:33.986Z,5.43
2022-11-24T20:02:38.203Z,5.41
2022-11-24T20:06:04.306Z,5.27
2022-11-24T20:09:10.007Z,5.13
2022-11-24T20:12:25.404Z,5.01
2022-11-24T20:15:34.028Z,4.99
2022-11-24T20:18:45.344Z,5.09
2022-11-24T20:22:01.479Z,5.13
2022-11-24T20:25:10.401Z,5.17
2022-11-24T20:28:25.914Z,5.21
2022-11-24T20:31:40.313Z,5.23
2022-11-24T20:34:55.317Z,5.24
2022-11-24T20:38:04.322Z,5.23
2022-11-24T20:41:19.608Z,5.22
2022-11-24T20:44:35.054Z,5.26
2022-11-24T20:47:50.280Z,5.30
2022-11-24T20:50:59.268Z,5.33
2022-11-24T20:54:16.320Z,5.35
2022-11-24T20:57:18.891Z,5.30
2022-11-24T21:00:35.355Z,5.28
2022-11-24T21:03:45.738Z,5.20
2022-11-24T21:07:01.303Z,5.24
2022-11-24T21:10:10.333Z,5.13
2022-11-24T21:13:18.433Z,4.96
2022-11-24T21:16:31.018Z,4.86
2022-11-24T21:19:45.936Z,4.77
2022-11-24T21:22:53.921Z,4.64
2022-11-24T21:26:05.722Z,4.57
2022-11-24T21:29:15.881Z,4.57
2022-11-24T21:32:30.901Z,4.60
2022-11-24T21:35:39.497Z,4.54
2022-11-24T21:38:49.000Z,4.44
2022-11-24T21:41:57.614Z,4.37
2022-11-24T21:45:13.904Z,4.28
2022-11-24T21:48:22.515Z,4.20
2022-11-24T21:51:36.893Z,4.18
2022-11-24T21:54:38.782Z,4.20
2022-11-24T21:57:53.934Z,4.16
2022-11-24T22:01:01.998Z,4.10
2022-11-24T22:04:16.920Z,4.05
2022-11-24T22:07:18.859Z,3.89
2022-11-24T22:10:35.861Z,3.72
2022-11-24T22:13:51.891Z,3.68
2022-11-24T22:16:53.860Z,3.55
2022-11-24T22:20:09.865Z,3.51
2022-11-24T22:23:18.885Z,3.47
2022-11-24T22:26:28.541Z,3.42
2022-11-24T22:29:36.873Z,3.39
2022-11-24T22:32:45.527Z,3.36
2022-11-24T22:36:02.877Z,3.29
2022-11-24T22:39:12.586Z,3.34
2022-11-24T22:42:27.847Z,3.39
2022-11-24T22:45:36.186Z,3.61
2022-11-24T22:48:55.869Z,3.70
2022-11-24T22:52:10.898Z,4.06
2022-11-24T22:55:19.430Z,4.26
2022-11-24T22:58:33.875Z,4.42
2022-11-24T23:01:35.817Z,4.51
2022-11-24T23:04:50.879Z,4.57
2022-11-24T23:07:52.880Z,4.60
2022-11-24T23:11:13.883Z,4.62
2022-11-24T23:14:28.875Z,4.63
2022-11-24T23:17:30.772Z,4.65
2022-11-24T23:20:45.851Z,4.77
2022-11-24T23:23:49.178Z,4.82
2022-11-24T23:27:03.870Z,4.89
2022-11-24T23:30:07.764Z,4.93
2022-11-24T23:33:22.870Z,4.96
2022-11-24T23:36:31.884Z,4.98
2022-11-24T23:39:40.533Z,5.00
2022-11-24T23:42:55.873Z,4.97
2022-11-24T23:46:17.556Z,4.99
2022-11-24T23:49:25.863Z,5.03
2022-11-24T23:52:41.860Z,4.97
2022-11-24T23:56:01.907Z,5.02
2022-11-24T23:59:04.743Z,5.01
